sensor_id;sensor_type;location;lat;lon;timestamp;P1;durP1;ratioP1;P2;durP2;ratioP2
679;SDS011;322;48.846;9.230;2024-02-14T00:00:06;15.60;;;7.30;;
679;SDS011;322;48.846;9.230;2024-02-14T00:02:40;14.00;;;7.30;;
679;SDS011;322;48.846;9.230;2024-02-14T00:05:08;14.43;;;7.00;;
679;SDS011;322;48.846;9.230;2024-02-14T00:07:37;17.50;;;7.10;;
679;SDS011;322;48.846;9.230;2024-02-14T00:10:06;15.10;;;7.83;;
679;SDS011;322;48.846;9.230;2024-02-14T00:12:34;15.70;;;7.70;;
679;SDS011;322;48.846;9.230;2024-02-14T00:15:03;15.63;;;7.00;;
679;SDS011;322;48.846;9.230;2024-02-14T00:17:34;19.20;;;7.57;;
679;SDS011;322;48.846;9.230;2024-02-14T00:20:04;16.73;;;6.90;;
679;SDS011;322;48.846;9.230;2024-02-14T00:22:33;17.87;;;7.50;;
679;SDS011;322;48.846;9.230;2024-02-14T00:25:01;13.43;;;7.13;;
679;SDS011;322;48.846;9.230;2024-02-14T00:27:29;15.77;;;7.77;;
679;SDS011;322;48.846;9.230;2024-02-14T00:29:57;14.37;;;6.93;;
679;SDS011;322;48.846;9.230;2024-02-14T00:32:25;14.93;;;7.30;;
679;SDS011;322;48.846;9.230;2024-02-14T00:34:54;13.43;;;6.17;;
679;SDS011;322;48.846;9.230;2024-02-14T00:37:23;13.43;;;6.47;;
679;SDS011;322;48.846;9.230;2024-02-14T00:39:51;13.60;;;6.40;;
679;SDS011;322;48.846;9.230;2024-02-14T00:42:20;13.90;;;6.70;;
679;SDS011;322;48.846;9.230;2024-02-14T00:44:48;16.93;;;7.10;;
679;SDS011;322;48.846;9.230;2024-02-14T00:47:16;14.00;;;7.27;;
679;SDS011;322;48.846;9.230;2024-02-14T00:49:44;14.20;;;6.10;;
679;SDS011;322;48.846;9.230;2024-02-14T00:52:12;13.23;;;6.63;;
679;SDS011;322;48.846;9.230;2024-02-14T00:54:41;15.03;;;7.10;;
679;SDS011;322;48.846;9.230;2024-02-14T00:57:09;14.23;;;7.17;;
679;SDS011;322;48.846;9.230;2024-02-14T00:59:37;12.70;;;6.13;;
679;SDS011;322;48.846;9.230;2024-02-14T01:02:06;15.03;;;6.40;;
679;SDS011;322;48.846;9.230;2024-02-14T01:04:34;16.83;;;6.40;;
679;SDS011;322;48.846;9.230;2024-02-14T01:07:02;17.37;;;6.97;;
679;SDS011;322;48.846;9.230;2024-02-14T01:09:30;12.13;;;6.10;;
679;SDS011;322;48.846;9.230;2024-02-14T01:12:00;14.07;;;6.60;;
679;SDS011;322;48.846;9.230;2024-02-14T01:14:28;16.07;;;6.70;;
679;SDS011;322;48.846;9.230;2024-02-14T01:16:56;14.03;;;6.87;;
679;SDS011;322;48.846;9.230;2024-02-14T01:19:24;13.70;;;6.13;;
679;SDS011;322;48.846;9.230;2024-02-14T01:21:54;15.27;;;7.23;;
679;SDS011;322;48.846;9.230;2024-02-14T01:24:23;15.40;;;6.07;;
679;SDS011;322;48.846;9.230;2024-02-14T01:26:52;13.30;;;6.63;;
679;SDS011;322;48.846;9.230;2024-02-14T01:29:23;13.60;;;5.77;;
679;SDS011;322;48.846;9.230;2024-02-14T01:31:51;10.70;;;5.40;;
679;SDS011;322;48.846;9.230;2024-02-14T01:34:18;16.13;;;5.97;;
679;SDS011;322;48.846;9.230;2024-02-14T01:36:47;14.00;;;6.30;;
679;SDS011;322;48.846;9.230;2024-02-14T01:39:15;11.60;;;5.60;;
679;SDS011;322;48.846;9.230;2024-02-14T01:41:44;14.67;;;6.20;;
679;SDS011;322;48.846;9.230;2024-02-14T01:44:14;15.00;;;6.77;;
679;SDS011;322;48.846;9.230;2024-02-14T01:46:45;16.10;;;5.97;;
679;SDS011;322;48.846;9.230;2024-02-14T01:49:20;12.90;;;5.97;;
679;SDS011;322;48.846;9.230;2024-02-14T01:51:54;13.60;;;5.60;;
679;SDS011;322;48.846;9.230;2024-02-14T01:54:26;12.50;;;5.50;;
679;SDS011;322;48.846;9.230;2024-02-14T01:56:54;14.37;;;7.03;;
679;SDS011;322;48.846;9.230;2024-02-14T01:59:23;15.40;;;5.70;;
679;SDS011;322;48.846;9.230;2024-02-14T02:01:53;11.73;;;4.70;;
679;SDS011;322;48.846;9.230;2024-02-14T02:04:21;12.73;;;5.50;;
679;SDS011;322;48.846;9.230;2024-02-14T02:06:49;16.60;;;5.43;;
679;SDS011;322;48.846;9.230;2024-02-14T02:09:18;12.40;;;5.73;;
679;SDS011;322;48.846;9.230;2024-02-14T02:11:46;12.37;;;5.20;;
679;SDS011;322;48.846;9.230;2024-02-14T02:14:15;12.57;;;5.00;;
679;SDS011;322;48.846;9.230;2024-02-14T02:16:44;19.60;;;4.47;;
679;SDS011;322;48.846;9.230;2024-02-14T02:19:13;12.03;;;4.30;;
679;SDS011;322;48.846;9.230;2024-02-14T02:21:42;12.23;;;5.43;;
679;SDS011;322;48.846;9.230;2024-02-14T02:24:11;14.00;;;5.30;;
679;SDS011;322;48.846;9.230;2024-02-14T02:26:39;13.43;;;5.17;;
679;SDS011;322;48.846;9.230;2024-02-14T02:29:07;14.03;;;5.67;;
679;SDS011;322;48.846;9.230;2024-02-14T02:31:35;13.37;;;4.97;;
679;SDS011;322;48.846;9.230;2024-02-14T02:34:04;9.83;;;4.60;;
679;SDS011;322;48.846;9.230;2024-02-14T02:36:32;11.80;;;4.93;;
679;SDS011;322;48.846;9.230;2024-02-14T02:39:02;13.17;;;4.47;;
679;SDS011;322;48.846;9.230;2024-02-14T02:41:32;10.40;;;4.00;;
679;SDS011;322;48.846;9.230;2024-02-14T02:44:00;17.00;;;4.30;;
679;SDS011;322;48.846;9.230;2024-02-14T02:46:28;12.03;;;4.90;;
679;SDS011;322;48.846;9.230;2024-02-14T02:48:56;12.67;;;5.43;;
679;SDS011;322;48.846;9.230;2024-02-14T02:51:25;12.50;;;4.07;;
679;SDS011;322;48.846;9.230;2024-02-14T02:53:54;8.73;;;3.50;;
679;SDS011;322;48.846;9.230;2024-02-14T02:56:22;13.37;;;4.03;;
679;SDS011;322;48.846;9.230;2024-02-14T02:58:55;11.17;;;3.33;;
679;SDS011;322;48.846;9.230;2024-02-14T03:01:23;11.47;;;3.40;;
679;SDS011;322;48.846;9.230;2024-02-14T03:03:57;11.20;;;4.10;;
679;SDS011;322;48.846;9.230;2024-02-14T03:06:25;9.30;;;3.60;;
679;SDS011;322;48.846;9.230;2024-02-14T03:08:53;9.50;;;4.20;;
679;SDS011;322;48.846;9.230;2024-02-14T03:11:22;11.67;;;4.03;;
679;SDS011;322;48.846;9.230;2024-02-14T03:13:51;13.30;;;3.93;;
679;SDS011;322;48.846;9.230;2024-02-14T03:16:20;9.43;;;3.10;;
679;SDS011;322;48.846;9.230;2024-02-14T03:18:51;13.90;;;4.03;;
679;SDS011;322;48.846;9.230;2024-02-14T03:21:20;12.50;;;3.87;;
679;SDS011;322;48.846;9.230;2024-02-14T03:23:48;9.43;;;2.70;;
679;SDS011;322;48.846;9.230;2024-02-14T03:26:16;10.90;;;3.40;;
679;SDS011;322;48.846;9.230;2024-02-14T03:28:44;11.50;;;3.60;;
679;SDS011;322;48.846;9.230;2024-02-14T03:31:12;10.67;;;3.87;;
679;SDS011;322;48.846;9.230;2024-02-14T03:33:43;8.80;;;3.33;;
679;SDS011;322;48.846;9.230;2024-02-14T03:36:11;12.30;;;4.23;;
679;SDS011;322;48.846;9.230;2024-02-14T03:38:39;11.00;;;4.30;;
679;SDS011;322;48.846;9.230;2024-02-14T03:41:07;11.00;;;3.67;;
679;SDS011;322;48.846;9.230;2024-02-14T03:43:35;9.17;;;3.73;;
679;SDS011;322;48.846;9.230;2024-02-14T03:46:03;10.80;;;4.20;;
679;SDS011;322;48.846;9.230;2024-02-14T03:48:32;12.23;;;4.33;;
679;SDS011;322;48.846;9.230;2024-02-14T03:51:02;11.07;;;4.03;;
679;SDS011;322;48.846;9.230;2024-02-14T03:53:30;15.00;;;4.87;;
679;SDS011;322;48.846;9.230;2024-02-14T03:55:59;11.90;;;4.83;;
679;SDS011;322;48.846;9.230;2024-02-14T03:58:27;16.53;;;4.57;;
679;SDS011;322;48.846;9.230;2024-02-14T04:00:55;12.20;;;5.20;;
679;SDS011;322;48.846;9.230;2024-02-14T04:03:23;16.87;;;5.63;;
679;SDS011;322;48.846;9.230;2024-02-14T04:05:51;14.87;;;6.93;;
679;SDS011;322;48.846;9.230;2024-02-14T04:08:20;11.57;;;4.80;;
679;SDS011;322;48.846;9.230;2024-02-14T04:10:48;15.20;;;5.30;;
679;SDS011;322;48.846;9.230;2024-02-14T04:13:17;11.27;;;5.37;;
679;SDS011;322;48.846;9.230;2024-02-14T04:15:45;12.73;;;5.70;;
679;SDS011;322;48.846;9.230;2024-02-14T04:18:13;13.23;;;5.70;;
679;SDS011;322;48.846;9.230;2024-02-14T04:20:42;15.70;;;5.60;;
679;SDS011;322;48.846;9.230;2024-02-14T04:23:10;13.43;;;5.90;;
679;SDS011;322;48.846;9.230;2024-02-14T04:25:43;10.57;;;5.40;;
679;SDS011;322;48.846;9.230;2024-02-14T04:28:11;12.47;;;5.40;;
679;SDS011;322;48.846;9.230;2024-02-14T04:30:40;14.90;;;5.43;;
679;SDS011;322;48.846;9.230;2024-02-14T04:33:08;13.43;;;5.90;;
679;SDS011;322;48.846;9.230;2024-02-14T04:35:40;11.73;;;5.10;;
679;SDS011;322;48.846;9.230;2024-02-14T04:38:08;16.10;;;5.70;;
679;SDS011;322;48.846;9.230;2024-02-14T04:40:36;12.47;;;4.80;;
679;SDS011;322;48.846;9.230;2024-02-14T04:43:05;16.03;;;5.57;;
679;SDS011;322;48.846;9.230;2024-02-14T04:45:33;11.10;;;4.60;;
679;SDS011;322;48.846;9.230;2024-02-14T04:48:02;10.47;;;4.70;;
679;SDS011;322;48.846;9.230;2024-02-14T04:50:30;13.40;;;5.20;;
679;SDS011;322;48.846;9.230;2024-02-14T04:52:58;10.80;;;4.50;;
679;SDS011;322;48.846;9.230;2024-02-14T04:55:26;13.80;;;4.70;;
679;SDS011;322;48.846;9.230;2024-02-14T04:57:55;13.93;;;5.80;;
679;SDS011;322;48.846;9.230;2024-02-14T05:00:24;12.87;;;5.10;;
679;SDS011;322;48.846;9.230;2024-02-14T05:02:52;13.50;;;4.80;;
679;SDS011;322;48.846;9.230;2024-02-14T05:05:21;13.70;;;5.50;;
679;SDS011;322;48.846;9.230;2024-02-14T05:07:49;13.50;;;5.33;;
679;SDS011;322;48.846;9.230;2024-02-14T05:10:17;12.30;;;4.97;;
679;SDS011;322;48.846;9.230;2024-02-14T05:12:45;10.47;;;4.77;;
679;SDS011;322;48.846;9.230;2024-02-14T05:15:13;10.77;;;4.97;;
679;SDS011;322;48.846;9.230;2024-02-14T05:17:44;11.90;;;5.60;;
679;SDS011;322;48.846;9.230;2024-02-14T05:20:12;11.70;;;5.30;;
679;SDS011;322;48.846;9.230;2024-02-14T05:22:40;11.03;;;4.63;;
679;SDS011;322;48.846;9.230;2024-02-14T05:25:08;12.70;;;4.97;;
679;SDS011;322;48.846;9.230;2024-02-14T05:27:36;11.37;;;4.63;;
679;SDS011;322;48.846;9.230;2024-02-14T05:30:06;15.43;;;5.60;;
679;SDS011;322;48.846;9.230;2024-02-14T05:32:35;13.57;;;5.50;;
679;SDS011;322;48.846;9.230;2024-02-14T05:35:05;14.67;;;5.50;;
679;SDS011;322;48.846;9.230;2024-02-14T05:37:34;11.03;;;4.60;;
679;SDS011;322;48.846;9.230;2024-02-14T05:40:05;11.53;;;4.93;;
679;SDS011;322;48.846;9.230;2024-02-14T05:42:34;12.80;;;4.87;;
679;SDS011;322;48.846;9.230;2024-02-14T05:45:02;12.20;;;5.17;;
679;SDS011;322;48.846;9.230;2024-02-14T05:47:32;11.90;;;5.00;;
679;SDS011;322;48.846;9.230;2024-02-14T05:50:00;13.07;;;5.17;;
679;SDS011;322;48.846;9.230;2024-02-14T05:52:29;12.30;;;4.37;;
679;SDS011;322;48.846;9.230;2024-02-14T05:54:57;12.33;;;4.80;;
679;SDS011;322;48.846;9.230;2024-02-14T05:57:25;9.23;;;3.87;;
679;SDS011;322;48.846;9.230;2024-02-14T05:59:53;10.10;;;3.50;;
679;SDS011;322;48.846;9.230;2024-02-14T06:02:29;11.17;;;4.70;;
679;SDS011;322;48.846;9.230;2024-02-14T06:04:57;10.70;;;3.63;;
679;SDS011;322;48.846;9.230;2024-02-14T06:07:25;13.97;;;4.80;;
679;SDS011;322;48.846;9.230;2024-02-14T06:09:54;12.10;;;5.03;;
679;SDS011;322;48.846;9.230;2024-02-14T06:12:22;10.57;;;3.80;;
679;SDS011;322;48.846;9.230;2024-02-14T06:14:50;9.07;;;3.30;;
679;SDS011;322;48.846;9.230;2024-02-14T06:17:18;10.33;;;3.87;;
679;SDS011;322;48.846;9.230;2024-02-14T06:19:46;11.83;;;3.80;;
679;SDS011;322;48.846;9.230;2024-02-14T06:22:14;11.77;;;3.90;;
679;SDS011;322;48.846;9.230;2024-02-14T06:24:42;10.60;;;4.40;;
679;SDS011;322;48.846;9.230;2024-02-14T06:27:11;9.67;;;3.47;;
679;SDS011;322;48.846;9.230;2024-02-14T06:29:41;14.13;;;4.07;;
679;SDS011;322;48.846;9.230;2024-02-14T06:32:11;10.77;;;3.87;;
679;SDS011;322;48.846;9.230;2024-02-14T06:34:40;11.67;;;4.10;;
679;SDS011;322;48.846;9.230;2024-02-14T06:37:08;11.40;;;4.40;;
679;SDS011;322;48.846;9.230;2024-02-14T06:39:36;12.53;;;3.90;;
679;SDS011;322;48.846;9.230;2024-02-14T06:42:05;14.20;;;4.57;;
679;SDS011;322;48.846;9.230;2024-02-14T06:44:34;10.40;;;4.00;;
679;SDS011;322;48.846;9.230;2024-02-14T06:47:03;11.70;;;4.07;;
679;SDS011;322;48.846;9.230;2024-02-14T06:49:31;11.83;;;4.53;;
679;SDS011;322;48.846;9.230;2024-02-14T06:51:59;10.03;;;4.10;;
679;SDS011;322;48.846;9.230;2024-02-14T06:54:27;11.53;;;4.67;;
679;SDS011;322;48.846;9.230;2024-02-14T06:56:55;13.77;;;5.00;;
679;SDS011;322;48.846;9.230;2024-02-14T06:59:23;10.67;;;4.30;;
679;SDS011;322;48.846;9.230;2024-02-14T07:01:52;8.93;;;3.57;;
679;SDS011;322;48.846;9.230;2024-02-14T07:04:30;11.17;;;4.43;;
679;SDS011;322;48.846;9.230;2024-02-14T07:06:58;10.80;;;5.03;;
679;SDS011;322;48.846;9.230;2024-02-14T07:09:27;12.13;;;5.77;;
679;SDS011;322;48.846;9.230;2024-02-14T07:11:55;13.10;;;4.90;;
679;SDS011;322;48.846;9.230;2024-02-14T07:14:24;11.30;;;4.40;;
679;SDS011;322;48.846;9.230;2024-02-14T07:16:53;11.90;;;3.80;;
679;SDS011;322;48.846;9.230;2024-02-14T07:19:21;11.00;;;4.20;;
679;SDS011;322;48.846;9.230;2024-02-14T07:21:49;11.40;;;3.73;;
679;SDS011;322;48.846;9.230;2024-02-14T07:24:17;12.43;;;4.83;;
679;SDS011;322;48.846;9.230;2024-02-14T07:26:45;10.43;;;3.90;;
679;SDS011;322;48.846;9.230;2024-02-14T07:29:13;9.40;;;3.90;;
679;SDS011;322;48.846;9.230;2024-02-14T07:31:41;10.80;;;4.30;;
679;SDS011;322;48.846;9.230;2024-02-14T07:34:11;11.13;;;3.80;;
679;SDS011;322;48.846;9.230;2024-02-14T07:36:42;10.23;;;4.03;;
679;SDS011;322;48.846;9.230;2024-02-14T07:39:12;10.60;;;4.27;;
679;SDS011;322;48.846;9.230;2024-02-14T07:41:43;11.30;;;3.87;;
679;SDS011;322;48.846;9.230;2024-02-14T07:44:11;10.03;;;3.43;;
679;SDS011;322;48.846;9.230;2024-02-14T07:46:39;11.83;;;3.60;;
679;SDS011;322;48.846;9.230;2024-02-14T07:49:10;10.60;;;3.67;;
679;SDS011;322;48.846;9.230;2024-02-14T07:51:38;9.87;;;3.27;;
679;SDS011;322;48.846;9.230;2024-02-14T07:54:06;10.00;;;3.40;;
679;SDS011;322;48.846;9.230;2024-02-14T07:56:34;10.57;;;3.37;;
679;SDS011;322;48.846;9.230;2024-02-14T07:59:02;9.80;;;3.43;;
679;SDS011;322;48.846;9.230;2024-02-14T08:01:31;11.23;;;3.37;;
679;SDS011;322;48.846;9.230;2024-02-14T08:03:59;9.63;;;3.53;;
679;SDS011;322;48.846;9.230;2024-02-14T08:06:28;9.27;;;4.00;;
679;SDS011;322;48.846;9.230;2024-02-14T08:08:57;10.90;;;3.50;;
679;SDS011;322;48.846;9.230;2024-02-14T08:11:28;12.20;;;3.83;;
679;SDS011;322;48.846;9.230;2024-02-14T08:13:56;11.47;;;3.20;;
679;SDS011;322;48.846;9.230;2024-02-14T08:16:24;11.40;;;3.50;;
679;SDS011;322;48.846;9.230;2024-02-14T08:18:52;9.17;;;3.50;;
679;SDS011;322;48.846;9.230;2024-02-14T08:21:25;12.27;;;4.10;;
679;SDS011;322;48.846;9.230;2024-02-14T08:23:59;10.83;;;3.40;;
679;SDS011;322;48.846;9.230;2024-02-14T08:26:27;13.63;;;4.33;;
679;SDS011;322;48.846;9.230;2024-02-14T08:28:55;10.97;;;4.37;;
679;SDS011;322;48.846;9.230;2024-02-14T08:31:24;9.97;;;4.07;;
679;SDS011;322;48.846;9.230;2024-02-14T08:33:52;12.23;;;4.00;;
679;SDS011;322;48.846;9.230;2024-02-14T08:36:21;11.07;;;4.90;;
679;SDS011;322;48.846;9.230;2024-02-14T08:38:49;9.87;;;4.20;;
679;SDS011;322;48.846;9.230;2024-02-14T08:41:19;13.80;;;3.80;;
679;SDS011;322;48.846;9.230;2024-02-14T08:43:46;15.40;;;4.07;;
679;SDS011;322;48.846;9.230;2024-02-14T08:46:15;10.07;;;4.00;;
679;SDS011;322;48.846;9.230;2024-02-14T08:48:44;13.77;;;4.47;;
679;SDS011;322;48.846;9.230;2024-02-14T08:51:15;11.77;;;4.50;;
679;SDS011;322;48.846;9.230;2024-02-14T08:53:46;11.73;;;4.73;;
679;SDS011;322;48.846;9.230;2024-02-14T08:56:14;12.03;;;4.60;;
679;SDS011;322;48.846;9.230;2024-02-14T08:58:43;12.13;;;4.53;;
679;SDS011;322;48.846;9.230;2024-02-14T09:01:11;11.70;;;4.10;;
679;SDS011;322;48.846;9.230;2024-02-14T09:03:41;11.40;;;4.70;;
679;SDS011;322;48.846;9.230;2024-02-14T09:06:14;11.57;;;4.70;;
679;SDS011;322;48.846;9.230;2024-02-14T09:08:44;12.10;;;4.13;;
679;SDS011;322;48.846;9.230;2024-02-14T09:11:12;10.90;;;4.00;;
679;SDS011;322;48.846;9.230;2024-02-14T09:13:40;11.67;;;4.20;;
679;SDS011;322;48.846;9.230;2024-02-14T09:16:10;8.73;;;3.43;;
679;SDS011;322;48.846;9.230;2024-02-14T09:18:39;13.13;;;4.50;;
679;SDS011;322;48.846;9.230;2024-02-14T09:21:07;11.83;;;4.57;;
679;SDS011;322;48.846;9.230;2024-02-14T09:23:35;10.20;;;3.60;;
679;SDS011;322;48.846;9.230;2024-02-14T09:26:05;9.77;;;4.20;;
679;SDS011;322;48.846;9.230;2024-02-14T09:28:33;10.73;;;3.70;;
679;SDS011;322;48.846;9.230;2024-02-14T09:31:02;9.93;;;3.10;;
679;SDS011;322;48.846;9.230;2024-02-14T09:33:32;11.70;;;4.00;;
679;SDS011;322;48.846;9.230;2024-02-14T09:36:01;9.20;;;3.53;;
679;SDS011;322;48.846;9.230;2024-02-14T09:38:30;9.60;;;3.30;;
679;SDS011;322;48.846;9.230;2024-02-14T09:41:00;11.10;;;3.90;;
679;SDS011;322;48.846;9.230;2024-02-14T09:43:38;13.43;;;3.33;;
679;SDS011;322;48.846;9.230;2024-02-14T09:46:11;9.60;;;3.07;;
679;SDS011;322;48.846;9.230;2024-02-14T09:48:41;10.50;;;3.37;;
679;SDS011;322;48.846;9.230;2024-02-14T09:51:12;11.47;;;4.00;;
679;SDS011;322;48.846;9.230;2024-02-14T09:53:40;11.43;;;3.53;;
679;SDS011;322;48.846;9.230;2024-02-14T09:56:10;10.90;;;4.63;;
679;SDS011;322;48.846;9.230;2024-02-14T09:58:40;9.83;;;3.63;;
679;SDS011;322;48.846;9.230;2024-02-14T10:01:08;12.17;;;3.83;;
679;SDS011;322;48.846;9.230;2024-02-14T10:03:36;12.70;;;4.43;;
679;SDS011;322;48.846;9.230;2024-02-14T10:06:05;12.53;;;3.87;;
679;SDS011;322;48.846;9.230;2024-02-14T10:08:33;14.13;;;4.00;;
679;SDS011;322;48.846;9.230;2024-02-14T10:11:07;11.80;;;3.77;;
679;SDS011;322;48.846;9.230;2024-02-14T10:13:37;10.80;;;3.27;;
679;SDS011;322;48.846;9.230;2024-02-14T10:16:05;13.03;;;4.37;;
679;SDS011;322;48.846;9.230;2024-02-14T10:18:34;13.20;;;3.93;;
679;SDS011;322;48.846;9.230;2024-02-14T10:21:02;10.10;;;3.33;;
679;SDS011;322;48.846;9.230;2024-02-14T10:23:32;13.83;;;4.27;;
679;SDS011;322;48.846;9.230;2024-02-14T10:26:00;9.73;;;3.40;;
679;SDS011;322;48.846;9.230;2024-02-14T10:28:29;13.80;;;3.70;;
679;SDS011;322;48.846;9.230;2024-02-14T10:31:09;11.50;;;3.10;;
679;SDS011;322;48.846;9.230;2024-02-14T10:33:39;12.30;;;3.50;;
679;SDS011;322;48.846;9.230;2024-02-14T10:36:07;9.90;;;3.17;;
679;SDS011;322;48.846;9.230;2024-02-14T10:38:37;10.93;;;3.10;;
679;SDS011;322;48.846;9.230;2024-02-14T10:41:07;8.70;;;2.50;;
679;SDS011;322;48.846;9.230;2024-02-14T10:43:36;8.80;;;2.23;;
679;SDS011;322;48.846;9.230;2024-02-14T10:46:07;8.37;;;2.00;;
679;SDS011;322;48.846;9.230;2024-02-14T10:48:42;8.60;;;2.00;;
679;SDS011;322;48.846;9.230;2024-02-14T10:51:10;7.17;;;1.20;;
679;SDS011;322;48.846;9.230;2024-02-14T10:53:45;8.70;;;1.20;;
679;SDS011;322;48.846;9.230;2024-02-14T10:56:17;8.00;;;0.97;;
679;SDS011;322;48.846;9.230;2024-02-14T10:58:49;7.93;;;1.40;;
679;SDS011;322;48.846;9.230;2024-02-14T11:01:24;7.30;;;1.20;;
679;SDS011;322;48.846;9.230;2024-02-14T11:03:56;9.17;;;1.27;;
679;SDS011;322;48.846;9.230;2024-02-14T11:06:25;6.27;;;1.03;;
679;SDS011;322;48.846;9.230;2024-02-14T11:09:01;8.10;;;1.47;;
679;SDS011;322;48.846;9.230;2024-02-14T11:11:33;6.23;;;0.80;;
679;SDS011;322;48.846;9.230;2024-02-14T11:14:04;8.83;;;1.20;;
679;SDS011;322;48.846;9.230;2024-02-14T11:16:33;6.33;;;0.87;;
679;SDS011;322;48.846;9.230;2024-02-14T11:19:08;6.50;;;1.00;;
679;SDS011;322;48.846;9.230;2024-02-14T11:21:39;6.03;;;0.67;;
679;SDS011;322;48.846;9.230;2024-02-14T11:24:11;6.57;;;1.10;;
679;SDS011;322;48.846;9.230;2024-02-14T11:26:46;10.80;;;1.40;;
679;SDS011;322;48.846;9.230;2024-02-14T11:29:16;7.00;;;1.20;;
679;SDS011;322;48.846;9.230;2024-02-14T11:31:57;5.93;;;0.90;;
679;SDS011;322;48.846;9.230;2024-02-14T11:34:26;6.70;;;0.80;;
679;SDS011;322;48.846;9.230;2024-02-14T11:36:55;6.47;;;0.97;;
679;SDS011;322;48.846;9.230;2024-02-14T11:39:24;6.80;;;0.83;;
679;SDS011;322;48.846;9.230;2024-02-14T11:41:52;7.03;;;0.90;;
679;SDS011;322;48.846;9.230;2024-02-14T11:44:20;7.13;;;1.17;;
679;SDS011;322;48.846;9.230;2024-02-14T11:46:49;7.77;;;1.63;;
679;SDS011;322;48.846;9.230;2024-02-14T11:49:17;8.50;;;0.97;;
679;SDS011;322;48.846;9.230;2024-02-14T11:51:49;6.47;;;1.20;;
679;SDS011;322;48.846;9.230;2024-02-14T11:54:17;6.93;;;0.80;;
679;SDS011;322;48.846;9.230;2024-02-14T11:56:48;6.87;;;0.90;;
679;SDS011;322;48.846;9.230;2024-02-14T11:59:16;6.50;;;0.97;;
679;SDS011;322;48.846;9.230;2024-02-14T12:01:46;6.30;;;0.90;;
679;SDS011;322;48.846;9.230;2024-02-14T12:04:17;8.73;;;1.00;;
679;SDS011;322;48.846;9.230;2024-02-14T12:06:48;6.83;;;0.97;;
679;SDS011;322;48.846;9.230;2024-02-14T12:09:16;6.37;;;0.90;;
679;SDS011;322;48.846;9.230;2024-02-14T12:11:44;6.80;;;1.00;;
679;SDS011;322;48.846;9.230;2024-02-14T12:14:16;7.23;;;0.90;;
679;SDS011;322;48.846;9.230;2024-02-14T12:16:45;7.37;;;1.20;;
679;SDS011;322;48.846;9.230;2024-02-14T12:19:13;6.40;;;1.10;;
679;SDS011;322;48.846;9.230;2024-02-14T12:21:43;7.47;;;1.80;;
679;SDS011;322;48.846;9.230;2024-02-14T12:24:13;10.00;;;2.03;;
679;SDS011;322;48.846;9.230;2024-02-14T12:26:42;7.33;;;1.37;;
679;SDS011;322;48.846;9.230;2024-02-14T12:29:12;7.93;;;1.33;;
679;SDS011;322;48.846;9.230;2024-02-14T12:31:40;6.30;;;0.90;;
679;SDS011;322;48.846;9.230;2024-02-14T12:34:10;7.30;;;1.30;;
679;SDS011;322;48.846;9.230;2024-02-14T12:36:40;7.20;;;1.20;;
679;SDS011;322;48.846;9.230;2024-02-14T12:39:08;7.50;;;1.27;;
679;SDS011;322;48.846;9.230;2024-02-14T12:41:39;6.80;;;0.90;;
679;SDS011;322;48.846;9.230;2024-02-14T12:44:07;7.10;;;0.93;;
679;SDS011;322;48.846;9.230;2024-02-14T12:46:36;8.17;;;1.50;;
679;SDS011;322;48.846;9.230;2024-02-14T12:49:05;7.10;;;1.10;;
679;SDS011;322;48.846;9.230;2024-02-14T12:51:35;8.73;;;1.10;;
679;SDS011;322;48.846;9.230;2024-02-14T12:54:04;6.50;;;0.80;;
679;SDS011;322;48.846;9.230;2024-02-14T12:56:33;7.20;;;0.90;;
679;SDS011;322;48.846;9.230;2024-02-14T12:59:01;6.93;;;1.10;;
679;SDS011;322;48.846;9.230;2024-02-14T13:01:29;7.20;;;1.73;;
679;SDS011;322;48.846;9.230;2024-02-14T13:03:59;6.50;;;1.00;;
679;SDS011;322;48.846;9.230;2024-02-14T13:06:28;6.20;;;0.83;;
679;SDS011;322;48.846;9.230;2024-02-14T13:08:56;6.50;;;1.10;;
679;SDS011;322;48.846;9.230;2024-02-14T13:11:24;6.13;;;0.67;;
679;SDS011;322;48.846;9.230;2024-02-14T13:13:52;6.20;;;0.70;;
679;SDS011;322;48.846;9.230;2024-02-14T13:16:20;6.00;;;0.80;;
679;SDS011;322;48.846;9.230;2024-02-14T13:18:48;6.30;;;0.80;;
679;SDS011;322;48.846;9.230;2024-02-14T13:21:21;6.30;;;0.70;;
679;SDS011;322;48.846;9.230;2024-02-14T13:23:49;5.90;;;0.60;;
679;SDS011;322;48.846;9.230;2024-02-14T13:26:20;6.20;;;0.80;;
679;SDS011;322;48.846;9.230;2024-02-14T13:28:48;6.57;;;0.67;;
679;SDS011;322;48.846;9.230;2024-02-14T13:31:16;6.60;;;1.00;;
679;SDS011;322;48.846;9.230;2024-02-14T13:33:46;6.83;;;0.90;;
679;SDS011;322;48.846;9.230;2024-02-14T13:36:14;6.40;;;0.57;;
679;SDS011;322;48.846;9.230;2024-02-14T13:38:44;6.10;;;0.60;;
679;SDS011;322;48.846;9.230;2024-02-14T13:41:13;5.90;;;0.50;;
679;SDS011;322;48.846;9.230;2024-02-14T13:43:41;6.00;;;0.50;;
679;SDS011;322;48.846;9.230;2024-02-14T13:46:10;6.10;;;0.60;;
679;SDS011;322;48.846;9.230;2024-02-14T13:48:38;6.30;;;0.80;;
679;SDS011;322;48.846;9.230;2024-02-14T13:51:07;7.17;;;0.70;;
679;SDS011;322;48.846;9.230;2024-02-14T13:53:36;6.30;;;0.50;;
679;SDS011;322;48.846;9.230;2024-02-14T13:56:06;6.33;;;0.70;;
679;SDS011;322;48.846;9.230;2024-02-14T13:58:34;7.03;;;0.60;;
679;SDS011;322;48.846;9.230;2024-02-14T14:01:04;6.80;;;0.70;;
679;SDS011;322;48.846;9.230;2024-02-14T14:03:33;6.30;;;0.80;;
679;SDS011;322;48.846;9.230;2024-02-14T14:06:03;6.20;;;0.60;;
679;SDS011;322;48.846;9.230;2024-02-14T14:08:34;6.03;;;0.73;;
679;SDS011;322;48.846;9.230;2024-02-14T14:11:03;7.37;;;0.60;;
679;SDS011;322;48.846;9.230;2024-02-14T14:13:32;6.70;;;0.73;;
679;SDS011;322;48.846;9.230;2024-02-14T14:16:00;5.83;;;0.50;;
679;SDS011;322;48.846;9.230;2024-02-14T14:18:31;7.07;;;0.70;;
679;SDS011;322;48.846;9.230;2024-02-14T14:20:59;6.50;;;0.60;;
679;SDS011;322;48.846;9.230;2024-02-14T14:23:27;6.00;;;0.67;;
679;SDS011;322;48.846;9.230;2024-02-14T14:25:55;6.30;;;0.60;;
679;SDS011;322;48.846;9.230;2024-02-14T14:28:23;5.80;;;0.40;;
679;SDS011;322;48.846;9.230;2024-02-14T14:30:53;6.00;;;0.50;;
679;SDS011;322;48.846;9.230;2024-02-14T14:33:21;7.10;;;0.70;;
679;SDS011;322;48.846;9.230;2024-02-14T14:35:52;6.57;;;0.50;;
679;SDS011;322;48.846;9.230;2024-02-14T14:38:21;5.87;;;0.50;;
679;SDS011;322;48.846;9.230;2024-02-14T14:40:49;6.23;;;0.60;;
679;SDS011;322;48.846;9.230;2024-02-14T14:43:19;6.00;;;0.50;;
679;SDS011;322;48.846;9.230;2024-02-14T14:45:47;6.00;;;0.50;;
679;SDS011;322;48.846;9.230;2024-02-14T14:48:17;6.60;;;0.60;;
679;SDS011;322;48.846;9.230;2024-02-14T14:50:45;6.00;;;0.53;;
679;SDS011;322;48.846;9.230;2024-02-14T14:53:13;6.20;;;0.60;;
679;SDS011;322;48.846;9.230;2024-02-14T14:55:49;6.67;;;0.50;;
679;SDS011;322;48.846;9.230;2024-02-14T14:58:18;6.00;;;0.50;;
679;SDS011;322;48.846;9.230;2024-02-14T15:00:48;5.73;;;0.50;;
679;SDS011;322;48.846;9.230;2024-02-14T15:03:22;6.00;;;0.50;;
679;SDS011;322;48.846;9.230;2024-02-14T15:05:50;5.83;;;0.50;;
679;SDS011;322;48.846;9.230;2024-02-14T15:08:20;5.77;;;0.40;;
679;SDS011;322;48.846;9.230;2024-02-14T15:10:52;6.47;;;0.60;;
679;SDS011;322;48.846;9.230;2024-02-14T15:13:22;6.70;;;0.50;;
679;SDS011;322;48.846;9.230;2024-02-14T15:15:50;9.67;;;0.70;;
679;SDS011;322;48.846;9.230;2024-02-14T15:18:19;6.20;;;0.60;;
679;SDS011;322;48.846;9.230;2024-02-14T15:20:49;6.00;;;0.60;;
679;SDS011;322;48.846;9.230;2024-02-14T15:23:17;6.80;;;0.77;;
679;SDS011;322;48.846;9.230;2024-02-14T15:25:45;6.10;;;0.57;;
679;SDS011;322;48.846;9.230;2024-02-14T15:28:13;7.23;;;0.60;;
679;SDS011;322;48.846;9.230;2024-02-14T15:30:48;6.47;;;0.53;;
679;SDS011;322;48.846;9.230;2024-02-14T15:33:33;5.80;;;0.50;;
679;SDS011;322;48.846;9.230;2024-02-14T15:36:03;6.83;;;0.60;;
679;SDS011;322;48.846;9.230;2024-02-14T15:38:31;7.73;;;0.80;;
679;SDS011;322;48.846;9.230;2024-02-14T15:40:59;5.90;;;0.70;;
679;SDS011;322;48.846;9.230;2024-02-14T15:43:30;6.60;;;0.70;;
679;SDS011;322;48.846;9.230;2024-02-14T15:45:59;6.77;;;0.70;;
679;SDS011;322;48.846;9.230;2024-02-14T15:48:27;6.00;;;0.70;;